createdAt,value
2022-10-20T00:03:19.050Z,17.30
2022-10-20T00:07:21.940Z,17.80
2022-10-20T00:11:25.223Z,17.60
2022-10-20T00:15:26.922Z,17.40
2022-10-20T00:19:29.575Z,17.30
2022-10-20T00:23:31.323Z,17.70
2022-10-20T00:27:33.980Z,17.50
2022-10-20T00:31:36.102Z,17.70
2022-10-20T00:35:39.402Z,17.50
2022-10-20T00:39:41.609Z,17.30
2022-10-20T00:44:09.055Z,17.50
2022-10-20T00:48:21.118Z,17.50
2022-10-20T00:52:23.011Z,17.60
2022-10-20T00:56:25.283Z,17.30
2022-10-20T01:00:27.943Z,17.10
2022-10-20T01:04:31.451Z,17.50
2022-10-20T01:08:33.263Z,17.60
2022-10-20T01:22:30.637Z,17.30
2022-10-20T01:26:38.142Z,17.20
2022-10-20T01:30:46.728Z,17.10
2022-10-20T01:35:10.558Z,17.30
2022-10-20T01:39:25.788Z,17.40
2022-10-20T01:43:31.586Z,17.30
2022-10-20T01:47:47.639Z,17.80
2022-10-20T01:51:49.378Z,17.40
2022-10-20T01:55:55.594Z,17.00
2022-10-20T02:00:06.435Z,17.20
2022-10-20T02:04:10.384Z,16.90
2022-10-20T02:08:44.660Z,17.20
2022-10-20T02:12:52.068Z,17.00
2022-10-20T02:16:58.556Z,17.00
2022-10-20T02:21:19.458Z,17.10
2022-10-20T02:25:23.223Z,17.10
2022-10-20T02:29:37.297Z,16.20
2022-10-20T02:33:41.022Z,16.50
2022-10-20T02:38:08.803Z,16.90
2022-10-20T02:42:12.201Z,16.90
2022-10-20T02:50:17.095Z,16.70
2022-10-20T02:54:18.934Z,16.40
2022-10-20T02:58:20.761Z,16.70
2022-10-20T03:02:22.536Z,17.00
2022-10-20T03:06:24.774Z,17.00
2022-10-20T03:10:27.453Z,16.90
2022-10-20T03:14:29.213Z,17.10
2022-10-20T03:18:31.620Z,17.30
2022-10-20T03:22:33.549Z,17.10
2022-10-20T03:26:36.630Z,16.30
2022-10-20T03:30:38.396Z,16.60
2022-10-20T03:34:40.553Z,16.70
2022-10-20T03:38:45.770Z,16.70
2022-10-20T03:42:48.238Z,16.90
2022-10-20T03:46:53.545Z,16.80
2022-10-20T03:51:00.979Z,16.90
2022-10-20T03:55:02.967Z,16.90
2022-10-20T03:59:05.319Z,16.80
2022-10-20T04:03:07.045Z,16.70
2022-10-20T04:07:16.627Z,17.20
2022-10-20T04:11:18.330Z,17.20
2022-10-20T04:15:20.064Z,16.70
2022-10-20T04:19:21.821Z,16.50
2022-10-20T04:23:23.591Z,16.50
2022-10-20T04:27:34.123Z,17.20
2022-10-20T04:31:36.219Z,17.00
2022-10-20T04:35:38.568Z,16.60
2022-10-20T04:39:50.437Z,16.70
2022-10-20T04:43:52.995Z,16.90
2022-10-20T04:47:55.118Z,17.30
2022-10-20T04:52:00.839Z,16.90
2022-10-20T04:56:05.200Z,16.90
2022-10-20T05:00:07.411Z,17.00
2022-10-20T05:04:10.509Z,17.00
2022-10-20T05:08:12.230Z,17.00
2022-10-20T05:16:20.254Z,17.00
2022-10-20T05:20:23.060Z,16.60
2022-10-20T05:24:29.180Z,16.50
2022-10-20T05:28:31.926Z,16.80
2022-10-20T05:32:33.923Z,17.20
2022-10-20T05:36:36.138Z,16.70
2022-10-20T05:40:37.779Z,17.10
2022-10-20T05:44:39.491Z,16.90
2022-10-20T05:48:43.162Z,16.70
2022-10-20T05:52:45.043Z,16.70
2022-10-20T05:56:46.932Z,16.70
2022-10-20T06:00:52.919Z,16.80
2022-10-20T06:04:54.582Z,16.80
2022-10-20T06:08:58.072Z,16.90
2022-10-20T06:12:59.738Z,17.10
2022-10-20T06:17:01.370Z,17.10
2022-10-20T06:21:05.511Z,17.00
2022-10-20T06:25:07.829Z,16.90
2022-10-20T06:29:17.998Z,17.00
2022-10-20T06:33:19.672Z,17.00
2022-10-20T06:37:21.446Z,17.10
2022-10-20T06:41:24.502Z,17.00
2022-10-20T06:45:26.148Z,16.90
2022-10-20T06:49:27.821Z,16.60
2022-10-20T06:53:30.538Z,16.50
2022-10-20T06:57:32.698Z,16.50
2022-10-20T07:01:37.114Z,16.60
2022-10-20T07:05:38.983Z,16.50
2022-10-20T07:09:40.788Z,16.30
2022-10-20T07:13:43.335Z,16.60
2022-10-20T07:17:45.047Z,17.10
2022-10-20T07:21:46.755Z,17.20
2022-10-20T07:25:48.438Z,16.90
2022-10-20T07:29:50.130Z,17.10
2022-10-20T07:34:06.698Z,16.70
2022-10-20T07:38:13.841Z,16.70
2022-10-20T07:42:15.558Z,16.70
2022-10-20T07:46:17.300Z,17.20
2022-10-20T07:50:19.059Z,16.80
2022-10-20T07:54:20.754Z,16.60
2022-10-20T07:58:22.465Z,16.60
2022-10-20T08:02:24.219Z,16.60
2022-10-20T08:06:27.159Z,16.80
2022-10-20T08:10:28.904Z,16.80
2022-10-20T08:14:35.162Z,16.70
2022-10-20T08:18:46.243Z,17.10
2022-10-20T08:22:48.031Z,17.00
2022-10-20T08:26:50.123Z,17.10
2022-10-20T08:30:52.096Z,16.80
2022-10-20T08:34:53.790Z,16.50
2022-10-20T08:38:57.268Z,16.60
2022-10-20T08:43:00.781Z,16.60
2022-10-20T08:47:04.931Z,16.80
2022-10-20T08:51:06.759Z,17.00
2022-10-20T08:55:25.013Z,16.80
2022-10-20T08:59:29.845Z,16.70
2022-10-20T09:03:33.556Z,16.70
2022-10-20T09:07:38.857Z,17.20
2022-10-20T09:11:41.862Z,17.30
2022-10-20T09:15:44.083Z,16.90
2022-10-20T09:19:57.982Z,17.10
2022-10-20T09:24:08.058Z,17.00
2022-10-20T09:28:22.615Z,17.10
2022-10-20T09:32:46.054Z,16.60
2022-10-20T09:36:50.917Z,16.70
2022-10-20T09:40:58.659Z,17.10
2022-10-20T09:45:16.693Z,16.70
2022-10-20T09:49:27.376Z,17.00
2022-10-20T09:54:06.326Z,17.40
2022-10-20T09:58:17.184Z,17.20
2022-10-20T10:02:18.987Z,17.10
2022-10-20T10:06:38.086Z,17.30
2022-10-20T10:10:39.910Z,17.20
2022-10-20T10:14:52.964Z,16.80
2022-10-20T10:19:04.846Z,17.30
2022-10-20T10:23:18.969Z,17.30
2022-10-20T10:27:20.650Z,17.40
2022-10-20T10:31:24.529Z,17.60
2022-10-20T10:35:35.117Z,17.40
2022-10-20T10:39:37.175Z,17.50
2022-10-20T10:44:00.363Z,17.70
2022-10-20T10:48:18.813Z,17.10
2022-10-20T10:52:48.284Z,16.80
2022-10-20T10:56:58.954Z,17.20
2022-10-20T11:01:09.753Z,17.40
2022-10-20T11:05:17.255Z,17.20
2022-10-20T11:09:37.038Z,16.90
2022-10-20T11:13:47.739Z,17.30
2022-10-20T11:18:05.643Z,17.50
2022-10-20T11:22:33.314Z,17.50
2022-10-20T11:26:41.714Z,17.50
2022-10-20T11:30:43.458Z,17.60
2022-10-20T11:35:23.312Z,17.40
2022-10-20T11:39:51.994Z,16.90
2022-10-20T11:43:57.887Z,16.40
2022-10-20T11:48:22.602Z,16.40
2022-10-20T11:52:39.727Z,16.80
2022-10-20T12:01:58.346Z,17.60
2022-10-20T12:06:22.266Z,17.50
2022-10-20T12:10:43.223Z,17.70
2022-10-20T12:15:00.497Z,17.70
2022-10-20T12:19:07.140Z,17.20
2022-10-20T12:23:44.597Z,16.80
2022-10-20T12:27:46.443Z,16.50
2022-10-20T12:32:25.822Z,16.80
2022-10-20T12:36:39.143Z,17.10
2022-10-20T12:40:47.151Z,17.40
2022-10-20T12:44:49.632Z,17.20
2022-10-20T12:48:57.585Z,17.60
2022-10-20T12:53:24.227Z,17.90
2022-10-20T12:57:41.265Z,18.20
2022-10-20T13:02:10.792Z,17.90
2022-10-20T13:06:33.253Z,18.30
2022-10-20T13:10:37.703Z,18.40
2022-10-20T13:14:49.306Z,18.50
2022-10-20T13:18:53.456Z,18.40
2022-10-20T13:22:56.807Z,18.30
2022-10-20T13:27:03.518Z,18.10
2022-10-20T13:31:24.145Z,17.70
2022-10-20T13:35:33.685Z,17.80
2022-10-20T13:40:03.243Z,18.00
2022-10-20T13:44:34.517Z,17.60
2022-10-20T13:48:54.411Z,17.80
2022-10-20T13:53:22.952Z,17.70
2022-10-20T13:57:33.818Z,17.70
2022-10-20T14:01:36.778Z,18.20
2022-10-20T14:05:39.309Z,17.70
2022-10-20T14:09:45.411Z,17.80
2022-10-20T14:13:49.721Z,17.60
2022-10-20T14:18:07.175Z,17.90
2022-10-20T14:22:25.476Z,18.30
2022-10-20T14:26:28.844Z,18.00
2022-10-20T14:30:31.692Z,18.20
2022-10-20T14:34:53.209Z,18.50
2022-10-20T14:39:00.164Z,18.70
2022-10-20T14:43:18.603Z,18.20
2022-10-20T14:47:21.436Z,18.20
2022-10-20T14:51:35.563Z,17.90
2022-10-20T14:55:37.392Z,17.40
2022-10-20T15:00:44.399Z,18.00
2022-10-20T15:04:59.487Z,18.00
2022-10-20T15:09:01.845Z,18.30
2022-10-20T15:13:04.272Z,18.20
2022-10-20T15:17:05.998Z,18.20
2022-10-20T15:21:08.337Z,17.00
2022-10-20T15:25:10.319Z,16.70
2022-10-20T15:29:12.189Z,17.50
2022-10-20T15:33:14.008Z,17.40
2022-10-20T15:37:15.703Z,17.70
2022-10-20T15:41:23.314Z,18.30
2022-10-20T15:45:32.943Z,18.50
2022-10-20T15:49:34.647Z,18.70
2022-10-20T15:53:36.369Z,18.60
2022-10-20T15:57:38.314Z,18.50
2022-10-20T16:01:41.394Z,18.30
2022-10-20T16:05:50.564Z,17.70
2022-10-20T16:09:52.259Z,18.20
2022-10-20T16:13:53.991Z,18.20
2022-10-20T16:17:55.698Z,18.20
2022-10-20T16:21:57.419Z,18.80
2022-10-20T16:25:59.270Z,18.50
2022-10-20T16:30:00.994Z,18.30
2022-10-20T16:34:02.925Z,17.80
2022-10-20T16:38:04.644Z,18.50
2022-10-20T16:42:06.368Z,18.70
2022-10-20T16:46:09.535Z,18.30
2022-10-20T16:50:11.314Z,18.20
2022-10-20T16:54:13.057Z,18.40
2022-10-20T16:58:14.796Z,18.40
2022-10-20T17:02:19.557Z,18.60
2022-10-20T17:07:09.615Z,18.20
2022-10-20T17:11:14.270Z,18.20
2022-10-20T17:15:16.051Z,18.40
2022-10-20T17:19:17.745Z,18.50
2022-10-20T17:23:19.871Z,18.40
2022-10-20T17:27:21.550Z,18.10
2022-10-20T17:31:23.451Z,18.00
2022-10-20T17:35:25.422Z,18.20
2022-10-20T17:39:28.567Z,18.40
2022-10-20T17:43:30.236Z,18.30
2022-10-20T17:47:32.244Z,18.40
2022-10-20T17:51:35.046Z,18.40
2022-10-20T17:55:36.966Z,18.20
2022-10-20T17:59:53.434Z,18.20
2022-10-20T18:04:01.995Z,18.10
2022-10-20T18:08:03.760Z,17.80
2022-10-20T18:12:05.550Z,17.90
2022-10-20T18:16:09.889Z,18.20
2022-10-20T18:20:13.003Z,18.10
2022-10-20T18:24:16.683Z,18.30
2022-10-20T18:28:19.967Z,18.40
2022-10-20T18:32:21.672Z,18.60
2022-10-20T18:36:24.453Z,18.40
2022-10-20T18:40:26.168Z,18.30
2022-10-20T18:48:31.516Z,18.30
2022-10-20T18:52:36.098Z,18.40
2022-10-20T18:56:37.904Z,18.60
2022-10-20T19:00:39.634Z,18.40
2022-10-20T19:04:41.389Z,18.30
2022-10-20T19:08:43.150Z,18.10
2022-10-20T19:12:44.903Z,18.20
2022-10-20T19:16:47.674Z,18.20
2022-10-20T19:21:01.931Z,18.10
2022-10-20T19:25:03.874Z,18.10
2022-10-20T19:29:10.186Z,18.10
2022-10-20T19:33:11.897Z,18.20
2022-10-20T19:37:14.325Z,18.20
2022-10-20T19:41:16.508Z,18.10
2022-10-20T19:45:18.159Z,18.10
2022-10-20T19:49:21.522Z,17.90
2022-10-20T19:53:23.307Z,18.20
2022-10-20T19:57:25.251Z,18.20
2022-10-20T20:01:27.142Z,18.40
2022-10-20T20:05:28.856Z,18.50
2022-10-20T20:09:34.325Z,18.50
2022-10-20T20:13:36.191Z,18.20
2022-10-20T20:17:38.203Z,18.00
2022-10-20T20:21:40.128Z,18.20
2022-10-20T20:25:43.805Z,18.30
2022-10-20T20:29:45.498Z,18.50
2022-10-20T20:33:48.764Z,18.40
2022-10-20T20:37:50.541Z,18.40
2022-10-20T20:41:52.246Z,18.40
2022-10-20T20:45:54.236Z,18.40
2022-10-20T20:49:56.690Z,17.80
2022-10-20T20:53:58.451Z,17.50
2022-10-20T20:58:00.126Z,18.20
2022-10-20T21:02:01.833Z,18.20
2022-10-20T21:06:05.458Z,17.90
2022-10-20T21:10:07.553Z,17.90
2022-10-20T21:14:09.545Z,18.00
2022-10-20T21:18:11.309Z,18.30
2022-10-20T21:22:13.067Z,18.40
2022-10-20T21:26:16.845Z,18.10
2022-10-20T21:30:18.666Z,18.20
2022-10-20T21:34:20.554Z,18.40
2022-10-20T21:38:25.139Z,18.10
2022-10-20T21:42:29.013Z,18.30
2022-10-20T21:46:36.709Z,18.20
2022-10-20T21:50:38.443Z,18.20
2022-10-20T21:54:40.305Z,18.50
2022-10-20T21:58:42.494Z,18.60
2022-10-20T22:02:47.766Z,18.60
2022-10-20T22:06:49.737Z,18.30
2022-10-20T22:10:51.437Z,18.10
2022-10-20T22:14:53.129Z,18.10
2022-10-20T22:19:02.980Z,18.30
2022-10-20T22:23:06.194Z,18.00
2022-10-20T22:27:15.504Z,18.20
2022-10-20T22:31:28.207Z,18.20
2022-10-20T22:35:29.891Z,18.10
2022-10-20T22:39:31.560Z,18.00
2022-10-20T22:43:33.533Z,18.40
2022-10-20T22:47:35.466Z,18.40
2022-10-20T22:51:37.141Z,18.10
2022-10-20T22:55:39.028Z,18.00
2022-10-20T22:59:40.671Z,18.10
2022-10-20T23:03:42.825Z,18.00
2022-10-20T23:07:44.660Z,18.10
2022-10-20T23:11:46.337Z,17.90
2022-10-20T23:15:52.234Z,17.90
2022-10-20T23:19:53.931Z,17.90
2022-10-20T23:23:55.588Z,18.30
2022-10-20T23:27:57.257Z,17.80
2022-10-20T23:31:58.926Z,18.00
2022-10-20T23:36:00.743Z,18.10
2022-10-20T23:40:02.397Z,17.80
2022-10-20T23:44:04.255Z,17.80
2022-10-20T23:48:06.149Z,17.60
2022-10-20T23:52:07.835Z,17.20
2022-10-20T23:56:09.493Z,17.80
